Immagine casuale
Testata Regione Lazio ARSIAL SIARL

Ultima Misura Rilevata

Temperatura, Umidità, Pioggia, Pressione Radiazione Solare, Venti, Evapotraspirazione, ecc.
Temperature diurne e notturne Direzione vento Legenda
Prov Stazione Data TMin TMed TMax UMed Pioggia PMed
FR ALATRI Basciano 19/09/2019 16,1 19,9 29,9 89 10,4 1.017
FR ALVITO Az. Ist. S. Benedetto 19/09/2019 16,2 19,1 25,3 91 17,8 1.016
FR ANAGNI La Gloria 19/09/2019 14,8 19,1 27,6 91 11 1.015
FR ARPINO Vigne Piane 19/09/2019 15,5 18,8 26,2 90 21,8 1.018
FR BOVILLE ERNICA Sasso 19/09/2019 17 20,8 30 85 10,4 1.016
FR CECCANO C.da Passo del Cardinale 19/09/2019 15,6 20,6 27,7 88 6,8 ----
FR ESPERIA Modale 19/09/2019 16,2 20,3 26,4 88 11 1.014
FR PASTENA Acero 19/09/2019 15,3 19,9 27,7 88 52,8 1.015
FR PIGLIO Civitella 19/09/2019 14,6 18,8 29,2 90 16,8 1.013
FR PONTECORVO Melfi di Sotto 19/09/2019 17 21,3 27,5 83 15 ----
FR S. ELIA FIUMERAPIDO Portella 19/09/2019 17,4 20,7 27,3 89 19 1.015
FR S. GIORGIO A LIRI Porto 19/09/2019 16,8 21,1 28,3 86 6,2 1.013
FR SGURGOLA Campo Lungo 19/09/2019 15,1 20,1 28,3 90 36,3 ----
FR VALLECORSA Serbatoio comunale 19/09/2019 15,3 19,3 24,9 89 36,6 1.015
LT APRILIA Le Ferriere 19/09/2019 16,8 21 29 87 8,4 1.014
LT CISTERNA B.go Carso 19/09/2019 15,2 20 27,3 89 9,3 ----
LT CISTERNA Doganella di Ninfa 19/09/2019 15,5 20,9 30,4 86 39,8 1.015
LT CORI Portone 19/09/2019 15,9 21 29,6 82 25,8 1.014
LT FONDI Capratica 19/09/2019 17,2 22,1 28,9 87 20,8 1.016
LT FORMIA Loc. Gianola 19/09/2019 17,8 22 26,8 85 8,6 ----
LT ITRI Valle Quercia 19/09/2019 16,7 21 27,4 83 13,6 1.014
LT MAENZA Casacotta 19/09/2019 16,6 21,1 28,5 83 37,4 1.010
LT MINTURNO Pulcherini 19/09/2019 18,5 21,6 26,3 95 14 1.015
LT PONTINIA Cotarda 19/09/2019 16,5 21,7 30,1 86 13,8 1.016
LT SABAUDIA Acquaviva 19/09/2019 14,8 21,4 29,2 89 24,4 1.015
LT SONNINO Frasso 19/09/2019 18,1 22,3 29,2 87 24,4 1.015
RI ACCUMOLI Terracino 19/09/2019 10,1 14 19,5 95 0,2 1.019
RI BORGOVELINO Ponte Basso 19/09/2019 15,4 18,8 28,8 87 3,6 1.018
RI CANTALUPO S. Francesco 19/09/2019 14,2 19,4 26,9 94 7,2 ----
RI CASTEL DI TORA Monte di Tora 19/09/2019 N.D. N.D. N.D. N.D. N.D. N.D.
RI CASTELNUOVO FARFA C. Spadone 19/09/2019 15,4 20,7 28,7 87 1,6 ----
RI CONFIGNI Portella 19/09/2019 14,9 19,1 26,8 81 2,4 1.015
RI FARA SABINA Canneto 19/09/2019 16,5 21,2 33,1 80 1 1.014
RI FARA SABINA Sant'Andrea 19/09/2019 15 20,8 29,9 86 2,4 ----
RI MONTELEONE S. Prato Camino 19/09/2019 15,1 18,9 28 88 1,8 1.018
RI MONTOPOLI IN SABINA Colle Arcone 19/09/2019 15,4 20,3 27,9 94 3,8 ----
RI MONTOPOLI IN SABINA Villa Caprola 19/09/2019 14,7 20,2 30,4 93 6,9 ----
RI POGGIO CATINO Pastine 19/09/2019 15,5 19,7 26,8 92 4,4 ----
RI POGGIO NATIVO Casali 19/09/2019 16,5 19,6 26,5 91 1,8 ----
RI RIETI Piana di Rieti 19/09/2019 13,2 19,2 28,5 81 1,9 1.018
RI SCANDRIGLIA Ponticelli 19/09/2019 16,1 19,6 26,7 91 3,2 ----
RM AGOSTA La Cisterna 19/09/2019 14,6 18,2 26,5 91 1 1.017
RM BRACCIANO Prato Pianciano 19/09/2019 17,1 20,9 30,5 88 11 1.016
RM CANALE MONTERANO Monte Virginio 19/09/2019 13,4 19,2 30 91 16,2 1.016
RM CERVETERI Campo di Mare 19/09/2019 19,8 23,3 28,4 75 1,7 ----
RM CIVITELLA S.PAOLO Le Cese 19/09/2019 14,8 20 30,2 89 15,4 1.014
RM FIUMICINO Maccarese 19/09/2019 17,5 22,2 28,8 86 0,4 1.015
RM FIUMICINO Testa di Lepre 19/09/2019 17,2 21 28,9 88 5 ----
RM FORMELLO Perazzeta 19/09/2019 17,5 21,2 29,4 82 8,4 ----
RM FRASCATI Prata Porci 19/09/2019 15,5 20,7 29,9 87 10 1.015
RM GENAZZANO Coop. La Sonnina 19/09/2019 15 19,2 28,1 90 44,2 1.016
RM GROTTAFERRATA Valle Marciana 19/09/2019 16,2 20,2 28,3 82 21 1.014
RM LADISPOLI Palo Laziale 19/09/2019 19 22,5 27 82 1,3 1.016
RM LICENZA Colle Franco 19/09/2019 14,7 18 27,3 79 10,8 1.015
RM MARCELLINA V. Campetella 19/09/2019 16,6 20,5 28,8 90 4,2 ----
RM MARINO Gotto d'Oro 19/09/2019 16,4 21,1 29 88 0 1.016
RM MONTECOMPATRI Colle Mattia 19/09/2019 15,5 20,6 30,2 82 24 1.016
RM MONTECOMPATRI Pantano Borghese 19/09/2019 15,3 21 31,6 85 7 1.013
RM MONTELIBRETTI Bruciati 19/09/2019 15,7 21 30,9 84 1,6 ----
RM MONTEPORZIO Camaldoli 19/09/2019 14,2 17,7 25,5 90 36,8 1.016
RM MONTEROTONDO Grotta Marozza 19/09/2019 15,7 20,7 30,3 87 22 1.015
RM PALOMBARA Fonte Grande 19/09/2019 15,6 19,9 30,2 88 29,6 ----
RM ROMA Capocotta 19/09/2019 N.D. N.D. N.D. N.D. N.D. ----
RM ROMA Ponte di Nona 19/09/2019 17,5 21,5 29,8 91 7,6 1.015
RM ROMA Via Lanciani 38 19/09/2019 19,2 22,4 29,3 83 2,8 1.014
RM S. GREGORIO C. Faustiniano 19/09/2019 15,7 20 28,9 80 3,4 1.011
RM VELLETRI Cantina Sperimentale 19/09/2019 14,8 19,5 28,2 86 N.D. 1.012
RM VELLETRI Prato Lungo 19/09/2019 16,5 20,4 27,4 83 45 ----
RM ZAGAROLO Santa Apollara 19/09/2019 16,5 20,3 28,3 86 12,8 ----
VT ACQUAPENDENTE Falconiera 19/09/2019 14,2 18 27,7 87 0,8 1.016
VT BAGNOREGIO Castell Cellesi 19/09/2019 16,2 19,3 25,5 75 N.D. ----
VT BASSANO R. Piano Mola 19/09/2019 14,9 19,1 30,7 88 4,4 1.016
VT BLERA Puntoni 19/09/2019 14,8 19,9 28,4 88 5,5 1.015
VT BOLSENA Capone 19/09/2019 16,3 20 32,1 79 4,4 1.015
VT BOLSENA Rentica 19/09/2019 16,3 19,6 26,6 79 6 ----
VT CANINO Diga Timone 19/09/2019 17,7 20,4 29,9 84 7,8 1.018
VT CANINO Pianacce 19/09/2019 18,2 20,7 28,7 82 3,4 1.015
VT CANINO San Valeriano 19/09/2019 17,3 19,9 26,5 85 16,5 ----
VT CELLENO Acquaforte 19/09/2019 16,6 19,3 25,1 88 1,6 ----
VT CORCHIANO Pantalone 19/09/2019 15,5 20,2 30,3 85 2 1.016
VT FARNESE Gressa 19/09/2019 15,7 18,4 24,9 80 23,9 ----
VT FARNESE Pian di Sala 19/09/2019 15 17,9 28,6 88 9,3 ----
VT GROTTE DI CASTRO Borghetto 19/09/2019 16,6 19,7 27,3 82 3,2 1.016
VT GROTTE DI CASTRO Purgatorio 19/09/2019 14,7 18,2 25,5 85 1,4 1.016
VT LATERA Centro Florovivaistico 19/09/2019 15 18,6 30,4 71 7,2 1.018
VT MONTALTO Le Murelle 19/09/2019 18,3 21,7 27,4 82 2,4 1.016
VT MONTALTO Pescia Romana 19/09/2019 20 22,2 29,1 80 0,2 1.015
VT MONTEFIASCONE Commenda 19/09/2019 17,5 20,5 28,7 84 2,5 ----
VT RONCIGLIONE Ponterotto 19/09/2019 17 20,1 26,3 81 2,2 ----
VT SORIANO CIMINO Pantane 19/09/2019 14,2 19,1 30,2 88 1,6 1.017
VT SORIANO CIMINO Poggio di Chia 19/09/2019 15,1 18,9 26,9 93 16 ----
VT TARQUINIA Portaccia 19/09/2019 19,9 22,8 27,8 78 1,2 ----
VT TUSCANIA Montebello 19/09/2019 16,3 19,6 28,7 86 1,6 ----
VT VETRALLA Marchionato 19/09/2019 16,9 19,8 27,3 91 6,2 ----
VT VITERBO Pisello 19/09/2019 16,8 19,7 27 88 20,4 ----
N.D. = Dati Non Disponibili
---- = Sensore non presente

Le misure esposte sono grezze, ovvero non sono state validate.